Date,TemperatureHighF,TemperatureAvgF,TemperatureLowF,DewpointHighF,DewpointAvgF,DewpointLowF,HumidityHigh,HumidityAvg,HumidityLow,PressureMaxIn,PressureMinIn,WindSpeedMaxMPH,WindSpeedAvgMPH,GustSpeedMaxMPH,PrecipitationSumIn
2013-1-1,22,17,12,17,13,10,92,86,71,30.34,30.20,9,4,14,0.03
2013-1-2,32,21,8,28,17,5,90,86,80,30.26,30.11,11,6,18,0.01
2013-1-3,32,24,13,27,20,11,94,86,80,30.44,30.26,7,3,11,0.00
2013-1-4,31,20,13,22,16,11,94,85,64,30.37,30.17,13,5,19,0.00
2013-1-5,37,30,22,31,25,18,90,82,68,30.24,30.05,18,9,25,0.02
2013-1-6,38,28,11,28,22,8,90,76,64,30.37,30.16,11,5,19,0.01
2013-1-7,45,37,31,32,28,24,89,69,60,30.16,29.96,22,10,31,0.00
2013-1-8,45,36,28,34,29,25,90,78,63,30.19,29.90,18,8,25,0.00
2013-1-9,55,36,23,38,29,21,93,79,47,30.45,30.19,6,1,9,0.00
2013-1-10,42,39,33,41,36,29,98,91,62,30.32,29.71,10,3,15,0.26
2013-1-11,55,47,32,46,41,24,98,84,36,29.83,29.44,22,12,34,0.01
2013-1-12,32,22,15,26,13,7,78,67,55,30.15,29.83,13,7,21,0.00
2013-1-13,24,15,9,9,6,4,83,68,46,30.36,30.14,10,5,19,0.00
2013-1-14,31,17,4,15,9,1,89,72,44,30.48,30.35,6,1,12,0.00
2013-1-15,36,22,9,19,14,6,92,73,45,30.37,30.11,8,3,18,0.00
2013-1-16,54,35,21,34,25,16,84,68,42,30.24,30.01,11,7,19,0.00
2013-1-17,52,35,18,34,27,16,95,75,44,30.48,30.25,11,4,18,0.00
2013-1-18,58,43,33,33,31,28,82,63,37,30.33,29.96,24,13,36,0.00
2013-1-19,60,43,28,33,29,24,87,62,28,30.32,29.93,15,6,27,0.00
2013-1-20,33,24,15,28,14,9,84,68,51,30.43,30.30,9,4,16,0.00
2013-1-21,21,16,12,15,10,7,87,75,61,30.45,30.34,8,4,13,0.00
2013-1-22,31,19,11,14,9,5,83,66,46,30.35,30.22,10,3,18,0.00
2013-1-23,43,26,12,25,17,8,90,70,47,30.45,30.17,11,4,21,0.00
2013-1-24,25,18,6,13,5,0,78,58,37,30.47,30.15,10,6,16,0.00
2013-1-25,52,32,14,27,18,8,80,59,35,30.23,30.14,7,2,12,0.00
2013-1-26,59,42,24,33,23,19,84,53,24,30.24,29.99,16,6,27,0.00
2013-1-27,57,45,33,54,42,32,98,93,72,29.99,29.66,14,7,22,0.11
2013-1-28,71,49,29,58,42,28,99,82,39,29.85,29.56,18,6,28,0.01
2013-1-29,62,36,31,58,34,30,96,91,78,29.73,29.56,15,8,26,0.01
2013-1-30,31,23,12,30,18,9,96,84,65,29.95,29.63,18,9,29,0.01
2013-1-31,17,12,-1,11,4,-5,88,69,58,30.45,29.92,15,6,31,0.00
2013-2-1,29,17,0,19,10,-3,88,74,63,30.43,30.09,16,7,26,0.00
2013-2-2,47,36,21,38,29,18,94,77,60,30.22,30.11,14,6,21,0.00
2013-2-3,49,39,24,30,27,21,90,63,44,30.27,29.83,15,6,23,0.00
2013-2-4,41,31,23,29,26,21,93,81,59,30.03,29.80,12,4,22,0.00
2013-2-5,55,37,23,35,28,21,93,72,40,30.08,29.88,10,4,16,0.00
2013-2-6,63,47,27,51,38,23,94,72,43,30.07,29.81,20,8,28,0.00
2013-2-7,50,41,27,47,34,24,97,78,51,30.25,29.87,15,7,26,0.00
2013-2-8,42,31,26,31,28,24,95,86,65,30.35,30.12,12,5,18,0.00
2013-2-9,53,39,29,42,34,27,94,84,63,30.13,29.64,19,11,29,0.00
2013-2-10,45,39,35,44,32,25,96,77,62,29.94,29.37,31,18,43,0.05
2013-2-11,43,32,18,26,21,14,86,66,41,30.19,29.94,12,6,23,0.00
2013-2-12,48,31,17,26,21,14,92,70,36,30.19,29.96,12,5,18,0.00
2013-2-13,55,36,20,29,24,16,91,63,30,29.97,29.80,14,6,26,0.00
2013-2-14,47,39,27,33,27,19,84,63,40,30.29,29.85,16,8,31,0.00
2013-2-15,38,26,16,27,18,13,88,72,45,30.42,30.27,12,6,27,0.00
2013-2-16,44,27,13,21,17,10,89,68,37,30.37,29.99,17,6,25,0.00
2013-2-17,66,44,25,34,27,19,80,57,26,29.99,29.56,16,6,24,0.00
2013-2-18,47,36,22,34,26,16,92,67,48,30.11,29.49,21,9,34,0.01
2013-2-19,33,24,17,17,9,0,81,55,25,30.35,30.11,13,5,23,0.01
2013-2-20,26,19,12,13,7,3,74,60,44,30.35,30.12,12,7,19,0.00
2013-2-21,24,21,19,21,17,10,93,84,56,30.16,29.78,13,8,21,0.00
2013-2-22,25,18,7,18,14,4,92,84,70,30.07,29.84,11,5,18,0.02
2013-2-23,34,20,1,27,15,-2,91,83,74,30.05,29.87,11,5,15,0.01
2013-2-24,41,31,18,30,25,16,93,77,56,30.02,29.88,10,4,14,0.01
2013-2-25,36,33,30,31,29,27,94,88,79,30.02,29.83,13,9,24,0.01
2013-2-26,33,30,27,28,27,24,95,89,80,29.94,29.78,13,9,22,0.01
2013-2-27,40,32,25,28,26,22,95,80,58,30.14,29.91,16,8,28,0.04
2013-2-28,34,32,29,28,26,24,85,79,72,30.24,30.13,14,8,22,0.01
2013-3-1,32,27,19,24,20,16,87,74,60,30.36,30.23,13,6,22,0.00
2013-3-2,40,26,10,25,19,7,92,75,43,30.37,30.10,9,3,14,0.00
2013-3-3,51,38,29,38,30,24,87,75,59,30.10,29.69,11,7,16,0.00
2013-3-4,41,36,31,35,32,28,94,84,74,30.06,29.63,15,6,24,0.02
2013-3-5,37,30,23,33,19,16,95,63,46,30.40,30.06,19,10,33,0.02
2013-3-6,43,28,13,24,19,11,91,71,38,30.44,30.21,11,4,16,0.00
2013-3-7,59,40,24,34,27,20,86,64,35,30.22,30.04,15,9,24,0.00
2013-3-8,64,48,32,48,38,27,85,69,48,30.12,29.88,18,10,26,0.00
2013-3-9,59,52,39,55,48,37,94,87,71,29.89,29.54,23,12,32,0.11
2013-3-10,39,28,22,37,26,18,94,90,82,30.00,29.66,21,13,34,0.02
2013-3-11,41,26,12,26,18,9,88,73,43,30.03,29.92,10,6,20,0.00
2013-3-12,42,36,27,28,24,21,84,64,45,30.37,30.03,20,7,29,0.00
2013-3-13,50,31,12,26,20,9,92,68,35,30.46,30.23,13,4,19,0.00
2013-3-14,73,52,35,40,34,25,77,54,25,30.23,30.09,12,6,19,0.00
2013-3-15,81,58,38,44,37,32,83,53,19,30.09,29.66,17,6,26,0.00
2013-3-16,48,37,32,43,31,25,91,79,67,30.13,29.82,18,9,31,0.00
2013-3-17,40,33,27,35,29,24,95,87,77,30.11,29.72,11,7,21,0.07
2013-3-18,51,40,31,35,27,16,96,65,31,30.08,29.76,15,7,29,0.01
2013-3-19,46,36,33,41,29,16,96,77,42,30.28,30.07,14,4,24,0.20
2013-3-20,42,31,20,33,19,14,94,63,35,30.44,30.08,12,5,22,0.04
2013-3-21,39,32,27,29,21,14,92,65,50,30.08,29.84,16,9,23,0.00
2013-3-22,35,30,26,31,27,24,94,89,82,30.01,29.93,7,4,11,0.02
2013-3-23,35,32,29,32,28,23,96,86,65,30.06,29.96,15,8,26,0.01
2013-3-24,33,28,24,28,22,17,95,78,60,30.15,29.98,18,11,29,0.01
2013-3-25,32,27,23,24,20,17,85,75,66,30.38,30.15,16,9,28,0.00
2013-3-26,44,28,15,25,19,12,88,69,40,30.41,30.23,8,3,12,0.00
2013-3-27,56,40,29,34,28,23,81,63,41,30.25,30.12,16,7,22,0.00
2013-3-28,65,45,24,36,30,22,94,63,28,30.22,30.11,9,2,15,0.00
2013-3-29,49,41,34,40,35,31,93,80,60,30.21,30.16,6,1,9,0.00
2013-4-1,44,39,28,20,18,17,64,43,36,30.31,30.24,10,4,18,0.00
2013-4-2,53,37,21,24,20,16,88,54,29,30.34,30.23,9,3,14,0.00
2013-4-3,51,39,25,28,24,20,87,56,34,30.36,30.25,10,3,16,0.00
2013-4-4,65,45,25,38,32,22,93,65,35,30.27,30.07,12,4,22,0.00
2013-4-5,71,52,31,42,35,28,94,60,26,30.16,29.75,22,10,34,0.00
2013-4-6,72,61,53,48,44,40,73,54,35,29.83,29.65,21,11,30,0.00
2013-4-7,77,57,42,53,43,38,95,65,26,29.85,29.64,15,5,24,0.84
2013-4-8,75,62,51,63,58,49,97,85,61,29.72,29.62,15,6,21,0.84
2013-4-9,66,52,33,62,49,32,96,92,83,29.98,29.54,15,9,26,0.59
2013-4-10,34,32,30,33,30,28,96,94,91,30.01,29.85,14,8,24,0.77
2013-4-11,38,33,30,30,28,26,94,82,69,29.89,29.75,16,10,24,0.02
2013-4-12,51,39,28,34,29,24,87,70,46,30.05,29.82,14,7,26,0.01
2013-4-13,68,48,26,50,38,24,95,70,43,30.05,29.57,18,6,27,0.00
2013-4-14,68,60,43,52,42,27,70,51,28,29.75,29.38,28,14,42,0.00
2013-4-15,50,43,32,31,27,23,83,55,38,30.06,29.75,12,6,21,0.00
2013-4-16,47,42,37,33,30,27,77,62,46,30.19,30.01,14,9,24,0.00
2013-4-17,44,41,38,43,39,33,97,92,65,30.10,29.67,18,8,30,1.16
2013-4-18,38,34,31,37,31,29,95,90,77,29.91,29.73,19,14,35,0.73
2013-4-19,52,46,36,33,29,25,70,52,43,30.12,30.01,18,7,25,0.00
2013-4-20,56,42,27,37,30,23,88,64,43,30.22,30.06,15,7,23,0.00
2013-4-21,69,57,42,46,41,37,82,58,38,30.14,30.03,25,12,36,0.00
2013-4-22,57,48,34,50,42,31,95,82,65,30.23,29.96,17,7,27,0.47
2013-4-23,38,33,29,32,28,24,96,82,66,30.25,30.14,16,10,29,0.13
2013-4-24,44,31,23,32,25,20,90,79,61,30.26,30.22,12,5,15,0.04
2013-4-25,69,61,45,41,38,34,87,44,29,30.29,30.06,22,11,30,0.00
2013-4-26,59,53,50,49,44,39,89,73,59,30.21,30.06,16,8,24,0.00
2013-4-27,67,54,47,52,48,45,95,82,54,30.21,30.00,7,2,10,0.00
2013-4-28,80,62,47,59,52,46,97,72,44,30.01,29.72,19,11,28,0.00
2013-4-29,86,70,52,61,55,49,92,63,37,29.78,29.56,18,7,25,0.00
2013-4-30,85,74,64,61,56,50,70,55,42,29.80,29.57,22,14,33,0.00
2013-5-1,64,46,35,53,41,33,94,82,59,30.37,29.80,20,12,33,0.90
2013-5-2,48,40,33,35,32,28,96,75,50,30.53,30.37,19,11,33,1.22
2013-5-3,53,43,32,34,29,26,85,61,35,30.40,30.02,18,9,27,0.01
2013-5-4,44,41,38,40,36,29,94,82,60,30.14,29.95,16,10,28,0.00
2013-5-5,56,48,41,48,43,39,95,86,74,30.19,30.11,11,6,20,0.00
2013-5-6,67,54,48,54,48,44,93,82,55,30.18,30.06,6,2,10,0.00
2013-5-7,75,61,45,56,51,44,98,74,47,30.09,29.94,10,4,16,0.00
2013-5-8,77,65,57,60,57,53,94,76,51,29.99,29.86,15,6,26,0.11
2013-5-9,66,59,56,59,56,53,95,89,74,30.01,29.85,24,6,34,0.03
2013-5-10,69,58,50,54,48,-100,94,76,48,30.14,30.01,13,6,20,0.01
2013-5-11,65,55,42,47,35,-100,95,53,26,30.30,30.09,17,8,30,0.01
2013-5-12,68,52,33,43,35,27,93,58,29,30.30,30.12,12,5,19,0.00
2013-5-13,83,65,46,56,48,41,86,58,31,30.14,29.92,16,8,25,0.00
2013-5-14,95,77,59,57,54,49,84,49,22,29.92,29.74,25,13,34,0.00
2013-5-15,89,75,61,64,58,54,84,58,36,29.88,29.79,14,7,23,0.00
2013-5-16,80,64,62,64,41,-100,98,80,50,29.91,29.80,11,4,16,0.00
2013-5-17,85,70,54,63,55,-100,98,70,43,29.93,29.84,10,5,15,0.00
2013-5-18,84,73,62,72,66,59,94,81,67,29.92,29.68,17,8,24,0.05
2013-5-19,79,68,57,68,61,54,93,78,51,29.67,29.52,19,5,28,0.93
2013-5-20,76,64,55,63,56,49,91,75,48,29.75,29.62,14,9,24,0.23
2013-5-21,69,60,52,52,50,47,92,70,49,29.80,29.73,16,9,23,0.01
2013-5-22,68,58,48,54,49,45,90,75,59,30.01,29.80,13,6,23,0.00
2013-5-23,66,58,49,55,51,46,92,80,66,30.24,30.02,10,4,16,0.00
2013-5-24,77,63,51,60,54,49,94,74,49,30.27,30.07,17,8,25,0.00
2013-5-25,84,74,62,67,63,59,92,72,53,30.14,29.96,24,11,34,0.00
2013-5-26,84,74,68,70,67,64,90,78,61,30.01,29.83,22,13,32,0.00
2013-5-27,83,72,61,71,66,59,96,82,65,29.90,29.57,19,11,31,0.72
2013-5-28,87,73,64,74,68,63,97,85,58,29.72,29.60,24,5,42,0.52
2013-5-29,83,71,61,71,66,59,95,84,62,29.72,29.54,27,12,39,0.57
2013-5-30,76,64,59,64,59,54,95,85,62,29.72,29.54,24,9,38,0.78
2013-5-31,80,69,57,62,56,50,96,68,37,29.80,29.64,12,4,18,0.15
2013-6-1,67,60,53,55,51,47,81,72,64,30.07,29.78,14,8,25,0.00
2013-6-2,69,58,48,49,47,45,92,69,43,30.16,30.03,9,4,16,0.00
2013-6-3,77,63,47,58,52,45,95,70,39,30.06,29.82,15,8,26,0.00
2013-6-4,78,69,60,68,63,57,93,80,69,29.98,29.81,14,4,23,0.00
2013-6-5,71,64,55,65,59,52,97,83,58,30.06,29.95,13,5,25,0.19
2013-6-6,74,62,47,57,52,46,96,72,47,30.05,29.97,9,3,14,0.01
2013-6-7,77,62,46,56,51,45,97,71,40,30.07,29.91,6,2,13,0.00
2013-6-8,82,68,58,65,58,52,94,72,50,29.93,29.71,20,9,33,0.27
2013-6-9,80,68,55,61,55,50,96,67,35,29.89,29.82,18,7,29,0.27
2013-6-10,86,70,50,71,60,49,97,72,41,29.92,29.77,12,4,20,0.00
2013-6-11,97,84,73,71,65,60,87,56,31,29.85,29.71,18,10,32,0.00
2013-6-12,92,82,69,72,65,55,76,58,34,30.06,29.69,19,9,29,0.00
2013-6-13,79,69,55,61,57,52,92,67,45,30.13,29.98,10,4,18,0.00
2013-6-14,99,80,64,74,66,59,91,66,32,30.02,29.80,18,7,25,0.00
2013-6-15,81,75,69,71,67,64,95,76,58,30.00,29.87,13,5,18,0.11
2013-6-16,85,75,67,72,68,66,98,82,58,30.03,29.93,8,3,14,0.09
2013-6-17,87,77,64,71,65,55,96,71,35,30.04,29.91,9,3,14,0.00
2013-6-18,84,71,60,68,63,59,97,78,54,30.07,30.00,10,2,21,0.18
2013-6-19,88,74,60,68,63,58,98,71,39,30.03,29.92,15,6,22,0.17
2013-6-20,93,78,69,74,68,63,87,73,53,29.98,29.83,20,10,29,0.00
2013-6-22,92,87,80,70,68,65,62,53,44,29.97,29.79,22,13,33,0.00
2013-6-23,92,78,64,74,67,62,93,71,46,29.94,29.80,16,9,33,0.00
2013-6-24,88,79,70,75,69,67,95,73,57,29.95,29.75,19,10,31,0.28
2013-6-25,95,82,66,75,70,61,88,68,45,29.89,29.63,28,13,46,0.29
2013-6-26,96,83,67,73,67,59,91,63,30,29.92,29.74,9,3,12,0.28
2013-6-27,85,75,69,75,70,66,94,84,67,30.03,29.91,13,4,22,0.11
2013-6-28,86,76,62,70,62,54,97,65,35,30.05,29.96,11,5,21,0.11
2013-6-29,84,73,63,60,56,50,85,59,32,30.00,29.93,16,7,27,0.00
2013-6-30,78,68,58,60,56,52,94,68,44,30.13,29.98,10,4,19,0.00
2013-7-1,81,67,49,56,52,47,96,63,32,30.21,30.13,9,3,16,0.00
2013-7-2,83,69,53,60,54,50,95,63,36,30.19,30.09,13,2,19,0.00
2013-7-3,85,70,52,59,54,50,95,64,32,30.11,29.98,8,2,18,0.24
2013-7-4,89,74,59,60,55,49,86,55,26,30.03,29.92,11,6,19,0.24
2013-7-5,92,79,65,63,58,56,82,52,31,29.95,29.85,18,8,28,0.00
2013-7-6,90,78,71,68,62,56,70,58,39,29.90,29.83,16,9,26,0.00
2013-7-7,97,84,72,67,64,62,77,54,34,29.94,29.85,19,8,25,0.00
2013-7-8,99,85,74,70,67,63,84,58,32,30.01,29.92,12,8,17,0.03
2013-7-9,102,88,75,74,70,66,84,57,34,30.01,29.86,17,6,27,0.08
2013-7-10,89,79,71,71,65,-100,86,65,48,30.11,29.97,11,4,18,0.02
2013-7-11,90,77,64,67,63,59,94,65,43,30.14,29.97,14,5,23,0.00
2013-7-12,96,82,69,73,66,59,74,60,45,30.02,29.91,12,7,19,0.00
2013-7-13,93,83,75,75,71,68,80,68,54,30.01,29.92,10,6,19,0.00
2013-7-14,87,78,70,69,64,57,86,63,37,30.08,29.96,11,6,18,0.00
2013-7-15,88,79,70,69,66,62,91,67,44,30.21,30.12,9,4,16,0.00
2013-7-16,80,68,60,68,64,59,98,88,60,30.29,30.21,3,1,7,0.01
2013-7-17,92,87,76,69,68,66,73,54,45,30.34,30.21,8,3,19,0.00
2013-7-18,93,82,70,71,67,64,89,63,40,30.22,30.00,12,6,20,0.00
2013-7-19,97,82,71,73,68,64,89,64,36,30.03,29.89,10,4,16,0.13
2013-7-20,79,73,67,74,68,-100,96,86,73,29.98,29.89,10,2,18,0.15
2013-7-21,87,75,63,72,68,62,98,80,59,29.95,29.82,9,2,13,0.01
2013-7-22,95,80,64,77,70,63,98,75,42,29.87,29.78,11,2,18,0.00
2013-7-23,82,72,65,71,66,63,97,83,66,30.07,29.85,11,4,23,0.05
2013-7-24,86,73,58,65,62,56,98,72,44,30.11,29.98,6,1,11,0.01
2013-7-25,76,70,66,73,66,62,93,85,70,30.11,30.01,8,1,15,0.07
2013-7-26,82,73,61,70,62,51,98,74,41,30.15,30.01,9,4,19,0.22
2013-7-27,69,60,51,61,56,49,97,88,67,30.20,30.04,6,2,10,0.09
2013-7-28,70,62,54,60,57,53,97,85,61,30.08,30.05,5,1,12,0.07
2013-7-29,67,64,61,66,63,60,98,97,95,30.07,29.98,9,3,18,2.06
2013-7-30,80,71,67,72,68,66,99,93,76,30.14,30.01,5,2,10,0.29
2013-7-31,86,74,62,70,67,61,99,80,49,30.19,30.09,3,0,10,0.01
2013-8-1,88,75,62,71,67,61,98,79,51,30.14,29.93,16,2,24,0.07
2013-8-2,85,74,64,74,69,62,97,84,69,30.08,29.88,9,4,17,0.60
2013-8-3,80,74,66,71,68,61,94,83,71,30.16,29.98,10,5,15,0.01
2013-8-4,80,72,65,73,67,62,95,84,76,30.17,30.02,8,4,14,0.05
2013-8-5,82,74,70,74,71,68,97,90,73,30.05,29.87,5,1,10,0.01
2013-8-6,90,78,68,78,73,67,99,87,64,29.93,29.82,5,1,11,0.00
2013-8-7,85,76,67,75,70,63,98,81,55,30.01,29.85,6,1,12,0.00
2013-8-8,76,69,64,69,66,61,94,89,78,30.06,29.95,6,1,9,0.01
2013-8-9,81,72,64,70,66,63,97,83,62,30.17,30.05,6,1,9,0.01
2013-8-10,85,72,58,71,64,57,99,79,49,30.24,30.11,4,0,8,0.00
2013-8-11,86,75,63,72,67,61,95,77,56,30.16,30.03,3,1,11,0.00
2013-8-12,81,72,63,71,67,62,98,87,68,30.10,29.98,14,2,24,1.27
2013-8-13,79,70,62,68,62,-100,98,82,61,30.17,30.08,6,2,10,0.01
2013-8-14,79,67,54,66,61,53,98,83,60,30.21,30.09,2,0,8,0.01
2013-8-15,79,59,62,68,42,-100,96,80,69,30.11,30.00,6,2,15,0.10
2013-8-16,77,65,59,66,57,-100,98,83,68,30.18,30.08,4,1,10,0.01
2013-8-19,86,69,62,72,52,-100,96,77,61,30.12,29.98,6,2,15,0.00
2013-8-20,89,76,67,72,66,-100,93,76,55,30.05,29.96,6,2,13,0.00
2013-8-21,91,79,68,74,69,65,91,73,55,30.05,29.98,5,2,12,0.00
2013-8-22,90,79,68,74,69,65,91,74,55,30.10,30.01,6,1,10,0.00
2013-8-23,88,77,68,75,70,66,97,81,62,30.09,29.99,4,1,12,0.00
2013-8-24,91,80,73,76,69,-100,90,73,56,30.11,30.03,6,2,14,0.02
2013-8-25,93,82,71,76,72,69,92,73,55,30.17,30.09,5,2,13,0.01
2013-8-26,93,82,72,75,71,69,91,71,47,30.14,30.03,8,4,16,0.00
2013-8-27,92,78,71,72,69,67,87,74,53,30.05,30.01,7,4,15,0.00
2013-9-1,84,75,64,74,66,59,94,77,46,30.04,29.77,17,3,28,0.67
2013-9-2,81,69,57,65,61,56,97,78,54,30.14,30.03,6,1,11,0.01
2013-9-3,86,69,52,63,58,51,98,72,37,30.14,30.04,2,0,6,0.01
2013-9-4,87,71,57,67,61,55,95,73,47,30.19,30.08,3,1,10,0.01
2013-9-5,89,75,62,70,65,59,94,72,46,30.21,30.10,4,1,9,0.00
2013-9-6,93,79,67,72,67,62,87,68,46,30.14,29.96,5,2,13,0.00
2013-9-7,99,81,72,74,65,-100,82,63,37,29.98,29.88,5,2,10,0.00
2013-9-8,100,84,70,73,68,65,90,62,34,29.93,29.83,4,1,10,0.00
2013-9-9,94,83,71,67,63,57,73,52,32,29.92,29.85,9,4,19,0.00
2013-9-10,94,82,71,69,64,61,71,56,40,30.05,29.92,8,4,19,0.00
2013-9-11,92,78,67,71,67,59,96,71,46,30.17,30.05,7,2,14,0.49
2013-9-12,82,73,63,71,66,58,98,81,51,30.22,30.14,6,2,13,0.07
2013-9-13,76,63,54,57,54,51,95,73,44,30.24,30.09,5,1,9,0.01
2013-9-14,81,65,51,62,53,-100,96,71,48,30.10,29.91,6,2,12,0.00
2013-9-15,70,67,62,65,61,57,93,83,74,30.21,29.90,9,4,17,0.01
2013-9-16,61,58,56,58,56,54,98,95,88,30.29,30.19,7,3,15,0.32
2013-9-17,80,68,59,71,64,58,99,90,70,30.19,29.90,7,2,14,0.31
2013-9-18,78,70,69,67,67,66,93,89,68,29.93,29.79,6,4,13,0.13
2013-9-19,86,74,63,70,64,53,79,70,57,30.05,29.78,10,5,20,0.00
2013-9-20,73,62,49,54,49,46,94,65,38,30.15,30.01,7,3,16,0.00
2013-9-21,83,61,43,58,48,-100,98,70,35,30.05,29.88,6,1,11,0.00
2013-9-22,81,67,55,57,53,49,90,64,37,29.95,29.82,8,3,17,0.00
2013-9-23,78,66,54,55,52,48,83,63,41,29.85,29.70,10,5,23,0.00
2013-9-24,70,64,55,59,56,52,93,76,63,29.93,29.70,10,5,17,0.00
2013-10-2,85,71,57,71,64,56,98,81,54,29.98,29.84,8,3,17,0.00
2013-10-3,84,72,60,71,66,59,97,83,61,29.89,29.69,9,4,16,1.39
2013-10-4,88,72,52,71,61,37,89,69,39,29.99,29.66,14,7,22,0.01
2013-10-5,57,49,44,37,34,32,70,57,41,30.04,29.94,15,9,25,0.00
2013-10-6,64,51,45,45,38,28,79,63,27,30.07,29.91,12,7,22,0.00
2013-10-7,75,56,37,44,40,34,94,59,29,30.16,30.03,6,3,16,0.00
2013-10-8,78,64,51,49,45,41,73,54,33,30.05,29.93,11,5,24,0.00
2013-10-9,81,65,53,55,51,47,81,63,38,30.01,29.94,9,4,19,0.00
2013-10-10,83,67,55,61,57,52,91,71,46,30.00,29.79,8,4,18,0.00
2013-10-11,80,68,57,61,52,37,87,60,22,29.95,29.69,10,6,21,0.00
2013-10-12,68,52,39,44,36,-100,93,62,30,30.29,29.95,7,2,12,0.00
2013-10-13,70,54,35,41,37,33,94,60,29,30.41,30.27,9,3,16,0.00
2013-10-14,62,58,52,61,50,37,97,77,46,30.25,29.78,9,6,18,0.91
2013-10-15,56,49,42,51,40,37,89,72,55,30.16,29.90,14,8,23,0.01
2013-10-16,58,48,38,39,37,33,89,68,40,30.16,30.00,7,4,17,0.00
2013-10-17,63,48,37,44,39,34,91,72,42,30.10,29.95,9,4,17,0.00
2013-10-18,46,39,34,37,34,30,95,83,57,30.17,30.09,6,2,12,0.00
2013-10-19,65,44,31,39,32,-100,96,71,33,30.09,29.86,12,4,18,0.01
2013-10-20,66,53,40,47,40,37,89,65,44,30.03,29.80,7,2,13,0.01
2013-10-21,59,45,29,40,34,27,96,69,40,30.16,29.98,11,2,16,0.00
2013-10-22,61,49,38,44,38,33,89,68,44,30.15,29.95,12,4,21,0.00
2013-10-23,61,45,30,44,37,28,96,74,50,30.22,30.02,7,2,19,0.00
2013-10-24,50,41,27,38,30,24,91,68,38,30.45,30.22,6,2,12,0.00
2013-10-25,60,50,27,34,30,25,91,48,30,30.44,30.12,9,4,17,0.00
2013-10-26,57,45,27,38,31,-100,92,62,32,30.24,30.08,9,3,19,0.00
2013-10-27,72,47,25,36,30,22,93,59,27,30.19,29.87,8,3,18,0.00
2013-10-28,64,49,35,54,40,-100,93,75,59,30.12,29.95,6,2,13,0.06
2013-10-29,60,56,52,59,55,50,98,96,93,30.10,29.90,8,3,14,0.18
2013-10-30,56,50,48,55,49,46,99,97,92,29.98,29.78,5,2,11,0.39
2013-11-12,36,23,13,14,11,7,88,61,30,30.90,30.64,10,3,16,0.00
2013-11-13,54,36,23,30,21,12,70,54,35,30.64,30.08,12,6,22,0.00
2013-11-14,56,43,33,32,26,19,81,52,36,30.07,29.93,9,4,17,0.00
2013-11-15,59,44,28,46,36,25,93,75,48,29.93,29.61,7,2,14,0.00
2013-11-16,68,56,47,53,40,-100,89,62,25,29.61,29.34,14,5,26,0.00
2013-11-17,59,50,34,45,33,23,81,55,25,30.12,29.27,22,9,33,0.00
2013-11-18,59,42,26,31,25,22,90,58,25,30.29,30.13,7,2,12,0.00
2013-12-14,28,21,14,22,16,-100,92,83,70,30.25,30.03,13,6,21,0.00
2013-12-15,50,34,15,33,26,13,94,72,50,30.19,29.96,8,4,13,0.00
2013-12-16,59,39,24,36,29,21,90,71,38,30.17,29.99,9,3,13,0.00
2013-12-17,46,35,23,32,26,19,93,71,40,30.35,30.17,10,4,18,0.00
2013-12-18,64,47,35,35,29,22,65,52,29,30.15,29.72,14,10,22,0.00
2013-12-19,44,36,20,35,30,17,89,77,65,29.86,29.67,13,5,22,0.00
2013-12-20,20,15,13,18,12,10,90,88,87,29.99,29.85,12,9,22,0.00